Terminal Aerodrome Forecast
Issued by NWS

Home | Current Version | Previous Version | Text Only | Print | Product List | Glossary Off
Versions: 1 2 3 4 5 6 7 8 9 10 11 12 13 14 15 16 17 18 19 20 21 22

000
FTUS43 KBIS 082331
TAFMOT
TAF
KMOT 082331Z 0900/0924 28017KT P6SM BKN150
     FM090400 29010KT P6SM BKN140
     FM091000 26008KT P6SM SCT250
     FM091400 24008KT P6SM FEW250
     FM091800 26015G25KT P6SM SCT250=

USA.gov is the U.S. government's official web portal to all federal, state and local government web resources and services.